sensor_id;sensor_type;location;lat;lon;timestamp;P1;durP1;ratioP1;P2;durP2;ratioP2
7899;SDS011;3995;50.856;4.404;2023-05-07T00:00:34;4.47;;;3.00;;
7899;SDS011;3995;50.856;4.404;2023-05-07T00:03:01;8.87;;;3.27;;
7899;SDS011;3995;50.856;4.404;2023-05-07T00:05:30;7.13;;;3.33;;
7899;SDS011;3995;50.856;4.404;2023-05-07T00:07:58;7.93;;;3.30;;
7899;SDS011;3995;50.856;4.404;2023-05-07T00:10:25;7.40;;;3.10;;
7899;SDS011;3995;50.856;4.404;2023-05-07T00:12:52;9.90;;;2.87;;
7899;SDS011;3995;50.856;4.404;2023-05-07T00:15:19;8.83;;;3.67;;
7899;SDS011;3995;50.856;4.404;2023-05-07T00:17:47;6.90;;;3.17;;
7899;SDS011;3995;50.856;4.404;2023-05-07T00:20:14;6.80;;;3.60;;
7899;SDS011;3995;50.856;4.404;2023-05-07T00:22:42;6.60;;;3.37;;
7899;SDS011;3995;50.856;4.404;2023-05-07T00:25:10;9.70;;;3.70;;
7899;SDS011;3995;50.856;4.404;2023-05-07T00:27:37;4.97;;;3.40;;
7899;SDS011;3995;50.856;4.404;2023-05-07T00:30:04;6.13;;;3.60;;
7899;SDS011;3995;50.856;4.404;2023-05-07T00:32:33;6.03;;;2.97;;
7899;SDS011;3995;50.856;4.404;2023-05-07T00:35:01;7.20;;;3.57;;
7899;SDS011;3995;50.856;4.404;2023-05-07T00:37:28;8.63;;;3.30;;
7899;SDS011;3995;50.856;4.404;2023-05-07T00:39:57;8.37;;;3.20;;
7899;SDS011;3995;50.856;4.404;2023-05-07T00:42:25;5.63;;;2.73;;
7899;SDS011;3995;50.856;4.404;2023-05-07T00:44:52;7.33;;;2.87;;
7899;SDS011;3995;50.856;4.404;2023-05-07T00:47:20;7.47;;;3.17;;
7899;SDS011;3995;50.856;4.404;2023-05-07T00:49:47;6.40;;;3.13;;
7899;SDS011;3995;50.856;4.404;2023-05-07T00:52:15;5.80;;;2.80;;
7899;SDS011;3995;50.856;4.404;2023-05-07T00:54:43;5.37;;;3.47;;
7899;SDS011;3995;50.856;4.404;2023-05-07T00:57:12;5.50;;;3.20;;
7899;SDS011;3995;50.856;4.404;2023-05-07T00:59:40;5.53;;;3.13;;
7899;SDS011;3995;50.856;4.404;2023-05-07T01:02:08;9.43;;;2.73;;
7899;SDS011;3995;50.856;4.404;2023-05-07T01:04:36;5.73;;;2.73;;
7899;SDS011;3995;50.856;4.404;2023-05-07T01:07:04;3.60;;;2.53;;
7899;SDS011;3995;50.856;4.404;2023-05-07T01:09:31;5.30;;;3.20;;
7899;SDS011;3995;50.856;4.404;2023-05-07T01:12:00;3.80;;;2.57;;
7899;SDS011;3995;50.856;4.404;2023-05-07T01:14:30;6.40;;;2.80;;
7899;SDS011;3995;50.856;4.404;2023-05-07T01:16:58;6.60;;;3.00;;
7899;SDS011;3995;50.856;4.404;2023-05-07T01:19:25;8.10;;;4.10;;
7899;SDS011;3995;50.856;4.404;2023-05-07T01:21:52;7.13;;;3.00;;
7899;SDS011;3995;50.856;4.404;2023-05-07T01:24:29;7.47;;;3.40;;
7899;SDS011;3995;50.856;4.404;2023-05-07T01:26:57;7.07;;;2.60;;
7899;SDS011;3995;50.856;4.404;2023-05-07T01:29:24;7.23;;;2.80;;
7899;SDS011;3995;50.856;4.404;2023-05-07T01:31:51;8.20;;;3.23;;
7899;SDS011;3995;50.856;4.404;2023-05-07T01:34:20;4.50;;;2.80;;
7899;SDS011;3995;50.856;4.404;2023-05-07T01:36:48;4.53;;;2.23;;
7899;SDS011;3995;50.856;4.404;2023-05-07T01:39:16;6.13;;;2.90;;
7899;SDS011;3995;50.856;4.404;2023-05-07T01:41:44;10.77;;;3.70;;
7899;SDS011;3995;50.856;4.404;2023-05-07T01:44:12;6.20;;;3.60;;
7899;SDS011;3995;50.856;4.404;2023-05-07T01:46:40;5.67;;;2.90;;
7899;SDS011;3995;50.856;4.404;2023-05-07T01:49:07;11.40;;;3.43;;
7899;SDS011;3995;50.856;4.404;2023-05-07T01:51:34;10.07;;;3.00;;
7899;SDS011;3995;50.856;4.404;2023-05-07T01:54:02;5.10;;;2.67;;
7899;SDS011;3995;50.856;4.404;2023-05-07T01:56:30;5.47;;;2.87;;
7899;SDS011;3995;50.856;4.404;2023-05-07T01:58:59;8.57;;;3.17;;
7899;SDS011;3995;50.856;4.404;2023-05-07T02:01:27;10.17;;;3.27;;
7899;SDS011;3995;50.856;4.404;2023-05-07T02:03:54;7.70;;;3.00;;
7899;SDS011;3995;50.856;4.404;2023-05-07T02:06:21;10.40;;;3.00;;
7899;SDS011;3995;50.856;4.404;2023-05-07T02:08:49;7.77;;;2.90;;
7899;SDS011;3995;50.856;4.404;2023-05-07T02:11:16;4.70;;;3.17;;
7899;SDS011;3995;50.856;4.404;2023-05-07T02:13:43;8.53;;;4.07;;
7899;SDS011;3995;50.856;4.404;2023-05-07T02:16:12;8.07;;;2.93;;
7899;SDS011;3995;50.856;4.404;2023-05-07T02:18:39;8.13;;;3.10;;
7899;SDS011;3995;50.856;4.404;2023-05-07T02:21:06;5.97;;;2.67;;
7899;SDS011;3995;50.856;4.404;2023-05-07T02:23:33;7.37;;;2.80;;
7899;SDS011;3995;50.856;4.404;2023-05-07T02:26:01;6.50;;;3.50;;
7899;SDS011;3995;50.856;4.404;2023-05-07T02:28:27;6.07;;;3.27;;
7899;SDS011;3995;50.856;4.404;2023-05-07T02:30:54;5.50;;;3.07;;
7899;SDS011;3995;50.856;4.404;2023-05-07T02:33:25;6.53;;;3.17;;
7899;SDS011;3995;50.856;4.404;2023-05-07T02:35:52;12.17;;;3.73;;
7899;SDS011;3995;50.856;4.404;2023-05-07T02:38:19;5.53;;;2.83;;
7899;SDS011;3995;50.856;4.404;2023-05-07T02:40:46;17.10;;;3.20;;
7899;SDS011;3995;50.856;4.404;2023-05-07T02:43:13;6.63;;;3.47;;
7899;SDS011;3995;50.856;4.404;2023-05-07T02:45:41;8.30;;;3.60;;
7899;SDS011;3995;50.856;4.404;2023-05-07T02:48:08;8.03;;;3.37;;
7899;SDS011;3995;50.856;4.404;2023-05-07T02:50:37;9.40;;;2.93;;
7899;SDS011;3995;50.856;4.404;2023-05-07T02:53:04;5.97;;;2.80;;
7899;SDS011;3995;50.856;4.404;2023-05-07T02:55:31;8.57;;;3.10;;
7899;SDS011;3995;50.856;4.404;2023-05-07T02:57:58;8.00;;;3.30;;
7899;SDS011;3995;50.856;4.404;2023-05-07T03:00:25;6.10;;;2.70;;
7899;SDS011;3995;50.856;4.404;2023-05-07T03:02:53;6.83;;;3.43;;
7899;SDS011;3995;50.856;4.404;2023-05-07T03:05:21;10.03;;;3.17;;
7899;SDS011;3995;50.856;4.404;2023-05-07T03:07:49;6.20;;;2.90;;
7899;SDS011;3995;50.856;4.404;2023-05-07T03:10:17;10.00;;;3.67;;
7899;SDS011;3995;50.856;4.404;2023-05-07T03:12:44;13.47;;;3.40;;
7899;SDS011;3995;50.856;4.404;2023-05-07T03:15:11;9.23;;;3.27;;
7899;SDS011;3995;50.856;4.404;2023-05-07T03:17:38;5.40;;;2.80;;
7899;SDS011;3995;50.856;4.404;2023-05-07T03:20:06;7.20;;;3.17;;
7899;SDS011;3995;50.856;4.404;2023-05-07T03:22:34;6.00;;;2.37;;
7899;SDS011;3995;50.856;4.404;2023-05-07T03:25:03;8.50;;;3.63;;
7899;SDS011;3995;50.856;4.404;2023-05-07T03:27:30;9.83;;;3.40;;
7899;SDS011;3995;50.856;4.404;2023-05-07T03:29:57;6.40;;;3.43;;
7899;SDS011;3995;50.856;4.404;2023-05-07T03:32:24;6.40;;;3.70;;
7899;SDS011;3995;50.856;4.404;2023-05-07T03:34:52;6.03;;;3.37;;
7899;SDS011;3995;50.856;4.404;2023-05-07T03:37:18;10.10;;;3.47;;
7899;SDS011;3995;50.856;4.404;2023-05-07T03:39:46;8.50;;;3.30;;
7899;SDS011;3995;50.856;4.404;2023-05-07T03:42:15;10.37;;;3.27;;
7899;SDS011;3995;50.856;4.404;2023-05-07T03:44:43;9.87;;;4.40;;
7899;SDS011;3995;50.856;4.404;2023-05-07T03:47:10;9.67;;;3.63;;
7899;SDS011;3995;50.856;4.404;2023-05-07T03:49:38;8.40;;;2.80;;
7899;SDS011;3995;50.856;4.404;2023-05-07T03:52:05;8.90;;;4.03;;
7899;SDS011;3995;50.856;4.404;2023-05-07T03:54:33;10.57;;;4.20;;
7899;SDS011;3995;50.856;4.404;2023-05-07T03:57:00;7.60;;;2.97;;
7899;SDS011;3995;50.856;4.404;2023-05-07T03:59:29;7.80;;;3.77;;
7899;SDS011;3995;50.856;4.404;2023-05-07T04:01:56;10.87;;;4.30;;
7899;SDS011;3995;50.856;4.404;2023-05-07T04:04:23;5.40;;;2.60;;
7899;SDS011;3995;50.856;4.404;2023-05-07T04:06:50;8.23;;;3.40;;
7899;SDS011;3995;50.856;4.404;2023-05-07T04:09:18;8.20;;;3.87;;
7899;SDS011;3995;50.856;4.404;2023-05-07T04:11:45;6.40;;;3.70;;
7899;SDS011;3995;50.856;4.404;2023-05-07T04:14:12;10.67;;;3.50;;
7899;SDS011;3995;50.856;4.404;2023-05-07T04:16:40;5.37;;;2.73;;
7899;SDS011;3995;50.856;4.404;2023-05-07T04:19:07;11.90;;;3.70;;
7899;SDS011;3995;50.856;4.404;2023-05-07T04:21:35;6.50;;;3.40;;
7899;SDS011;3995;50.856;4.404;2023-05-07T04:24:02;9.63;;;3.17;;
7899;SDS011;3995;50.856;4.404;2023-05-07T04:26:30;6.93;;;3.70;;
7899;SDS011;3995;50.856;4.404;2023-05-07T04:28:57;9.13;;;3.40;;
7899;SDS011;3995;50.856;4.404;2023-05-07T04:31:25;8.20;;;3.93;;
7899;SDS011;3995;50.856;4.404;2023-05-07T04:33:53;11.00;;;3.57;;
7899;SDS011;3995;50.856;4.404;2023-05-07T04:36:20;7.10;;;3.67;;
7899;SDS011;3995;50.856;4.404;2023-05-07T04:38:48;8.77;;;3.33;;
7899;SDS011;3995;50.856;4.404;2023-05-07T04:41:15;6.90;;;3.33;;
7899;SDS011;3995;50.856;4.404;2023-05-07T04:43:42;11.87;;;3.67;;
7899;SDS011;3995;50.856;4.404;2023-05-07T04:46:09;9.17;;;3.30;;
7899;SDS011;3995;50.856;4.404;2023-05-07T04:48:36;7.70;;;3.20;;
7899;SDS011;3995;50.856;4.404;2023-05-07T04:51:05;7.10;;;3.47;;
7899;SDS011;3995;50.856;4.404;2023-05-07T04:53:32;7.63;;;3.60;;
7899;SDS011;3995;50.856;4.404;2023-05-07T04:55:59;7.57;;;2.93;;
7899;SDS011;3995;50.856;4.404;2023-05-07T04:58:26;11.27;;;3.43;;
7899;SDS011;3995;50.856;4.404;2023-05-07T05:00:56;6.47;;;2.70;;
7899;SDS011;3995;50.856;4.404;2023-05-07T05:03:23;5.07;;;3.00;;
7899;SDS011;3995;50.856;4.404;2023-05-07T05:05:51;9.87;;;2.93;;
7899;SDS011;3995;50.856;4.404;2023-05-07T05:08:19;19.20;;;4.50;;
7899;SDS011;3995;50.856;4.404;2023-05-07T05:10:46;13.47;;;3.57;;
7899;SDS011;3995;50.856;4.404;2023-05-07T05:13:14;11.60;;;3.90;;
7899;SDS011;3995;50.856;4.404;2023-05-07T05:15:42;11.33;;;3.47;;
7899;SDS011;3995;50.856;4.404;2023-05-07T05:18:10;7.50;;;3.10;;
7899;SDS011;3995;50.856;4.404;2023-05-07T05:20:38;6.10;;;2.80;;
7899;SDS011;3995;50.856;4.404;2023-05-07T05:23:05;10.53;;;3.20;;
7899;SDS011;3995;50.856;4.404;2023-05-07T05:25:34;7.30;;;3.80;;
7899;SDS011;3995;50.856;4.404;2023-05-07T05:28:02;12.00;;;3.60;;
7899;SDS011;3995;50.856;4.404;2023-05-07T05:30:29;7.13;;;3.40;;
7899;SDS011;3995;50.856;4.404;2023-05-07T05:32:57;9.23;;;3.10;;
7899;SDS011;3995;50.856;4.404;2023-05-07T05:35:24;6.87;;;3.33;;
7899;SDS011;3995;50.856;4.404;2023-05-07T05:37:51;7.17;;;3.50;;
7899;SDS011;3995;50.856;4.404;2023-05-07T05:40:19;9.17;;;2.77;;
7899;SDS011;3995;50.856;4.404;2023-05-07T05:42:47;5.70;;;3.23;;
7899;SDS011;3995;50.856;4.404;2023-05-07T05:45:14;13.80;;;3.67;;
7899;SDS011;3995;50.856;4.404;2023-05-07T05:47:42;9.80;;;2.70;;
7899;SDS011;3995;50.856;4.404;2023-05-07T05:50:09;5.70;;;3.00;;
7899;SDS011;3995;50.856;4.404;2023-05-07T05:52:36;8.63;;;3.30;;
7899;SDS011;3995;50.856;4.404;2023-05-07T05:55:04;6.87;;;2.80;;
7899;SDS011;3995;50.856;4.404;2023-05-07T05:57:32;6.87;;;2.73;;
7899;SDS011;3995;50.856;4.404;2023-05-07T06:00:01;11.27;;;3.57;;
7899;SDS011;3995;50.856;4.404;2023-05-07T06:02:29;10.23;;;4.50;;
7899;SDS011;3995;50.856;4.404;2023-05-07T06:04:56;6.40;;;3.70;;
7899;SDS011;3995;50.856;4.404;2023-05-07T06:07:23;6.77;;;3.30;;
7899;SDS011;3995;50.856;4.404;2023-05-07T06:09:50;12.80;;;4.00;;
7899;SDS011;3995;50.856;4.404;2023-05-07T06:12:18;9.20;;;3.40;;
7899;SDS011;3995;50.856;4.404;2023-05-07T06:14:45;6.60;;;3.63;;
7899;SDS011;3995;50.856;4.404;2023-05-07T06:17:14;7.37;;;3.50;;
7899;SDS011;3995;50.856;4.404;2023-05-07T06:19:41;9.27;;;3.63;;
7899;SDS011;3995;50.856;4.404;2023-05-07T06:22:09;6.43;;;3.40;;
7899;SDS011;3995;50.856;4.404;2023-05-07T06:24:36;11.07;;;3.70;;
7899;SDS011;3995;50.856;4.404;2023-05-07T06:27:03;6.77;;;3.10;;
7899;SDS011;3995;50.856;4.404;2023-05-07T06:29:30;7.77;;;3.70;;
7899;SDS011;3995;50.856;4.404;2023-05-07T06:32:05;5.60;;;3.10;;
7899;SDS011;3995;50.856;4.404;2023-05-07T06:34:34;13.23;;;4.00;;
7899;SDS011;3995;50.856;4.404;2023-05-07T06:37:01;6.63;;;3.23;;
7899;SDS011;3995;50.856;4.404;2023-05-07T06:39:29;14.30;;;3.03;;
7899;SDS011;3995;50.856;4.404;2023-05-07T06:41:56;6.97;;;3.07;;
7899;SDS011;3995;50.856;4.404;2023-05-07T06:44:24;6.73;;;2.80;;
7899;SDS011;3995;50.856;4.404;2023-05-07T06:46:51;7.60;;;2.90;;
7899;SDS011;3995;50.856;4.404;2023-05-07T06:49:18;4.07;;;2.53;;
7899;SDS011;3995;50.856;4.404;2023-05-07T06:51:47;5.30;;;2.60;;
7899;SDS011;3995;50.856;4.404;2023-05-07T06:54:14;6.23;;;3.00;;
7899;SDS011;3995;50.856;4.404;2023-05-07T06:56:41;11.10;;;3.30;;
7899;SDS011;3995;50.856;4.404;2023-05-07T06:59:08;6.70;;;2.83;;
7899;SDS011;3995;50.856;4.404;2023-05-07T07:01:35;7.37;;;3.00;;
7899;SDS011;3995;50.856;4.404;2023-05-07T07:04:02;6.30;;;3.23;;
7899;SDS011;3995;50.856;4.404;2023-05-07T07:06:29;6.00;;;2.87;;
7899;SDS011;3995;50.856;4.404;2023-05-07T07:08:58;7.93;;;3.13;;
7899;SDS011;3995;50.856;4.404;2023-05-07T07:11:25;7.50;;;3.53;;
7899;SDS011;3995;50.856;4.404;2023-05-07T07:13:53;5.93;;;2.60;;
7899;SDS011;3995;50.856;4.404;2023-05-07T07:16:20;4.13;;;2.50;;
7899;SDS011;3995;50.856;4.404;2023-05-07T07:18:47;5.63;;;2.47;;
7899;SDS011;3995;50.856;4.404;2023-05-07T07:21:14;6.23;;;2.30;;
7899;SDS011;3995;50.856;4.404;2023-05-07T07:23:41;5.33;;;2.43;;
7899;SDS011;3995;50.856;4.404;2023-05-07T07:26:10;4.17;;;2.60;;
7899;SDS011;3995;50.856;4.404;2023-05-07T07:28:44;5.30;;;2.83;;
7899;SDS011;3995;50.856;4.404;2023-05-07T07:31:12;6.50;;;3.00;;
7899;SDS011;3995;50.856;4.404;2023-05-07T07:33:40;5.10;;;2.73;;
7899;SDS011;3995;50.856;4.404;2023-05-07T07:36:07;4.50;;;2.70;;
7899;SDS011;3995;50.856;4.404;2023-05-07T07:38:34;6.03;;;2.30;;
7899;SDS011;3995;50.856;4.404;2023-05-07T07:41:02;6.30;;;2.50;;
7899;SDS011;3995;50.856;4.404;2023-05-07T07:43:31;10.67;;;2.93;;
7899;SDS011;3995;50.856;4.404;2023-05-07T07:46:12;6.53;;;2.23;;
7899;SDS011;3995;50.856;4.404;2023-05-07T07:48:39;5.40;;;2.70;;
7899;SDS011;3995;50.856;4.404;2023-05-07T07:51:06;8.77;;;3.30;;
7899;SDS011;3995;50.856;4.404;2023-05-07T07:53:34;6.20;;;2.70;;
7899;SDS011;3995;50.856;4.404;2023-05-07T07:56:01;5.20;;;2.87;;
7899;SDS011;3995;50.856;4.404;2023-05-07T07:58:28;6.70;;;2.60;;
7899;SDS011;3995;50.856;4.404;2023-05-07T08:00:58;5.93;;;2.80;;
7899;SDS011;3995;50.856;4.404;2023-05-07T08:03:24;5.50;;;2.30;;
7899;SDS011;3995;50.856;4.404;2023-05-07T08:05:52;7.27;;;2.70;;
7899;SDS011;3995;50.856;4.404;2023-05-07T08:08:20;4.87;;;2.50;;
7899;SDS011;3995;50.856;4.404;2023-05-07T08:10:50;4.67;;;2.60;;
7899;SDS011;3995;50.856;4.404;2023-05-07T08:13:17;8.70;;;3.33;;
7899;SDS011;3995;50.856;4.404;2023-05-07T08:15:46;7.20;;;2.90;;
7899;SDS011;3995;50.856;4.404;2023-05-07T08:18:13;5.63;;;2.90;;
7899;SDS011;3995;50.856;4.404;2023-05-07T08:20:40;5.47;;;2.43;;
7899;SDS011;3995;50.856;4.404;2023-05-07T08:23:07;6.83;;;2.60;;
7899;SDS011;3995;50.856;4.404;2023-05-07T08:25:35;4.73;;;3.07;;
7899;SDS011;3995;50.856;4.404;2023-05-07T08:28:03;8.20;;;3.00;;
7899;SDS011;3995;50.856;4.404;2023-05-07T08:30:30;4.30;;;2.60;;
7899;SDS011;3995;50.856;4.404;2023-05-07T08:32:59;7.03;;;2.53;;
7899;SDS011;3995;50.856;4.404;2023-05-07T08:35:26;4.00;;;2.30;;
7899;SDS011;3995;50.856;4.404;2023-05-07T08:37:54;5.73;;;2.50;;
7899;SDS011;3995;50.856;4.404;2023-05-07T08:40:20;6.20;;;2.77;;
7899;SDS011;3995;50.856;4.404;2023-05-07T08:42:55;5.57;;;2.30;;
7899;SDS011;3995;50.856;4.404;2023-05-07T08:45:23;3.77;;;2.43;;
7899;SDS011;3995;50.856;4.404;2023-05-07T08:47:55;5.60;;;2.40;;
7899;SDS011;3995;50.856;4.404;2023-05-07T08:50:25;6.63;;;3.10;;
7899;SDS011;3995;50.856;4.404;2023-05-07T08:52:52;3.93;;;2.60;;
7899;SDS011;3995;50.856;4.404;2023-05-07T08:55:21;5.07;;;2.80;;
7899;SDS011;3995;50.856;4.404;2023-05-07T08:57:49;8.83;;;2.90;;
7899;SDS011;3995;50.856;4.404;2023-05-07T09:00:18;6.00;;;2.63;;
7899;SDS011;3995;50.856;4.404;2023-05-07T09:02:45;3.70;;;2.33;;
7899;SDS011;3995;50.856;4.404;2023-05-07T09:05:14;3.87;;;3.00;;
7899;SDS011;3995;50.856;4.404;2023-05-07T09:07:41;6.60;;;3.30;;
7899;SDS011;3995;50.856;4.404;2023-05-07T09:10:09;7.40;;;3.50;;
7899;SDS011;3995;50.856;4.404;2023-05-07T09:12:36;5.47;;;3.63;;
7899;SDS011;3995;50.856;4.404;2023-05-07T09:15:04;5.47;;;3.03;;
7899;SDS011;3995;50.856;4.404;2023-05-07T09:17:32;7.00;;;3.07;;
7899;SDS011;3995;50.856;4.404;2023-05-07T09:20:01;4.90;;;2.73;;
7899;SDS011;3995;50.856;4.404;2023-05-07T09:22:32;4.40;;;2.60;;
7899;SDS011;3995;50.856;4.404;2023-05-07T09:25:00;5.47;;;3.03;;
7899;SDS011;3995;50.856;4.404;2023-05-07T09:27:27;8.80;;;3.47;;
7899;SDS011;3995;50.856;4.404;2023-05-07T09:29:55;7.17;;;3.70;;
7899;SDS011;3995;50.856;4.404;2023-05-07T09:32:22;8.27;;;3.50;;
7899;SDS011;3995;50.856;4.404;2023-05-07T09:34:52;6.60;;;3.63;;
7899;SDS011;3995;50.856;4.404;2023-05-07T09:37:19;5.60;;;3.17;;
7899;SDS011;3995;50.856;4.404;2023-05-07T09:39:48;5.60;;;3.57;;
7899;SDS011;3995;50.856;4.404;2023-05-07T09:42:16;7.33;;;3.40;;
7899;SDS011;3995;50.856;4.404;2023-05-07T09:44:51;8.87;;;3.87;;
7899;SDS011;3995;50.856;4.404;2023-05-07T09:47:19;4.93;;;3.87;;
7899;SDS011;3995;50.856;4.404;2023-05-07T09:49:57;8.77;;;3.80;;
7899;SDS011;3995;50.856;4.404;2023-05-07T09:52:30;4.80;;;3.27;;
7899;SDS011;3995;50.856;4.404;2023-05-07T09:55:00;7.17;;;3.47;;
7899;SDS011;3995;50.856;4.404;2023-05-07T09:57:28;6.30;;;3.50;;
7899;SDS011;3995;50.856;4.404;2023-05-07T09:59:56;7.43;;;3.53;;
7899;SDS011;3995;50.856;4.404;2023-05-07T10:02:27;7.50;;;3.90;;
7899;SDS011;3995;50.856;4.404;2023-05-07T10:04:56;4.10;;;3.37;;
7899;SDS011;3995;50.856;4.404;2023-05-07T10:07:25;4.40;;;2.80;;
7899;SDS011;3995;50.856;4.404;2023-05-07T10:09:53;6.27;;;3.40;;
7899;SDS011;3995;50.856;4.404;2023-05-07T10:12:23;6.57;;;2.80;;
7899;SDS011;3995;50.856;4.404;2023-05-07T10:14:50;7.67;;;3.53;;
7899;SDS011;3995;50.856;4.404;2023-05-07T10:17:19;6.33;;;3.17;;
7899;SDS011;3995;50.856;4.404;2023-05-07T10:19:47;5.10;;;3.10;;
7899;SDS011;3995;50.856;4.404;2023-05-07T10:22:16;5.47;;;2.67;;
7899;SDS011;3995;50.856;4.404;2023-05-07T10:24:44;6.90;;;2.90;;
7899;SDS011;3995;50.856;4.404;2023-05-07T10:27:15;6.87;;;3.03;;
7899;SDS011;3995;50.856;4.404;2023-05-07T10:29:48;9.40;;;2.87;;
7899;SDS011;3995;50.856;4.404;2023-05-07T10:32:29;6.83;;;2.80;;
7899;SDS011;3995;50.856;4.404;2023-05-07T10:35:02;4.40;;;2.40;;
7899;SDS011;3995;50.856;4.404;2023-05-07T10:37:35;6.13;;;3.20;;
7899;SDS011;3995;50.856;4.404;2023-05-07T10:40:03;7.93;;;2.30;;
7899;SDS011;3995;50.856;4.404;2023-05-07T10:42:32;5.93;;;2.40;;
7899;SDS011;3995;50.856;4.404;2023-05-07T10:45:12;3.47;;;2.37;;
7899;SDS011;3995;50.856;4.404;2023-05-07T10:50:35;4.57;;;2.43;;
7899;SDS011;3995;50.856;4.404;2023-05-07T10:53:20;3.73;;;2.30;;
7899;SDS011;3995;50.856;4.404;2023-05-07T10:58:51;4.70;;;3.03;;
7899;SDS011;3995;50.856;4.404;2023-05-07T11:04:18;3.57;;;2.30;;
7899;SDS011;3995;50.856;4.404;2023-05-07T11:10:05;4.20;;;2.90;;
7899;SDS011;3995;50.856;4.404;2023-05-07T11:15:39;3.97;;;2.30;;
7899;SDS011;3995;50.856;4.404;2023-05-07T11:18:09;3.97;;;2.63;;
7899;SDS011;3995;50.856;4.404;2023-05-07T11:20:44;3.17;;;2.10;;
7899;SDS011;3995;50.856;4.404;2023-05-07T11:26:24;5.80;;;2.53;;
7899;SDS011;3995;50.856;4.404;2023-05-07T11:28:53;5.20;;;2.33;;
7899;SDS011;3995;50.856;4.404;2023-05-07T11:31:22;4.07;;;2.40;;
7899;SDS011;3995;50.856;4.404;2023-05-07T11:33:53;5.50;;;2.53;;
7899;SDS011;3995;50.856;4.404;2023-05-07T11:36:21;3.37;;;2.43;;
7899;SDS011;3995;50.856;4.404;2023-05-07T11:38:49;5.03;;;2.00;;
7899;SDS011;3995;50.856;4.404;2023-05-07T11:41:16;5.13;;;2.10;;
7899;SDS011;3995;50.856;4.404;2023-05-07T11:43:55;3.73;;;2.10;;
7899;SDS011;3995;50.856;4.404;2023-05-07T11:46:23;4.13;;;2.10;;
7899;SDS011;3995;50.856;4.404;2023-05-07T11:48:53;9.43;;;2.40;;
7899;SDS011;3995;50.856;4.404;2023-05-07T11:51:21;3.63;;;2.10;;
7899;SDS011;3995;50.856;4.404;2023-05-07T11:53:49;3.33;;;2.00;;
7899;SDS011;3995;50.856;4.404;2023-05-07T11:56:17;4.37;;;2.40;;
7899;SDS011;3995;50.856;4.404;2023-05-07T11:58:45;5.80;;;2.60;;
7899;SDS011;3995;50.856;4.404;2023-05-07T12:01:13;6.53;;;2.80;;
7899;SDS011;3995;50.856;4.404;2023-05-07T12:03:47;3.53;;;2.10;;
7899;SDS011;3995;50.856;4.404;2023-05-07T12:06:16;5.13;;;2.20;;
7899;SDS011;3995;50.856;4.404;2023-05-07T12:08:44;3.30;;;2.40;;
7899;SDS011;3995;50.856;4.404;2023-05-07T12:11:13;3.53;;;2.50;;
7899;SDS011;3995;50.856;4.404;2023-05-07T12:13:42;3.27;;;2.10;;
7899;SDS011;3995;50.856;4.404;2023-05-07T12:16:10;4.70;;;2.83;;
7899;SDS011;3995;50.856;4.404;2023-05-07T12:18:37;4.23;;;2.17;;
7899;SDS011;3995;50.856;4.404;2023-05-07T12:21:05;3.03;;;1.90;;
7899;SDS011;3995;50.856;4.404;2023-05-07T12:23:34;2.80;;;1.73;;
7899;SDS011;3995;50.856;4.404;2023-05-07T12:26:03;6.10;;;2.20;;
7899;SDS011;3995;50.856;4.404;2023-05-07T12:28:31;5.70;;;2.27;;
7899;SDS011;3995;50.856;4.404;2023-05-07T12:31:03;2.67;;;1.93;;
7899;SDS011;3995;50.856;4.404;2023-05-07T12:33:31;3.70;;;1.50;;
7899;SDS011;3995;50.856;4.404;2023-05-07T12:36:02;8.23;;;2.27;;
7899;SDS011;3995;50.856;4.404;2023-05-07T12:38:37;2.63;;;1.83;;
7899;SDS011;3995;50.856;4.404;2023-05-07T12:41:06;2.80;;;2.03;;
7899;SDS011;3995;50.856;4.404;2023-05-07T12:43:34;6.90;;;2.20;;
7899;SDS011;3995;50.856;4.404;2023-05-07T12:46:03;4.27;;;2.47;;
7899;SDS011;3995;50.856;4.404;2023-05-07T12:48:32;2.80;;;1.90;;
7899;SDS011;3995;50.856;4.404;2023-05-07T12:50:59;4.33;;;2.20;;
7899;SDS011;3995;50.856;4.404;2023-05-07T12:53:28;2.40;;;1.90;;
7899;SDS011;3995;50.856;4.404;2023-05-07T12:55:57;4.53;;;2.47;;
7899;SDS011;3995;50.856;4.404;2023-05-07T12:58:26;2.50;;;2.23;;
7899;SDS011;3995;50.856;4.404;2023-05-07T13:00:55;4.67;;;2.70;;
7899;SDS011;3995;50.856;4.404;2023-05-07T13:03:25;3.93;;;2.80;;
7899;SDS011;3995;50.856;4.404;2023-05-07T13:05:54;3.70;;;2.57;;
7899;SDS011;3995;50.856;4.404;2023-05-07T13:08:28;4.23;;;3.03;;
7899;SDS011;3995;50.856;4.404;2023-05-07T13:10:59;4.33;;;2.80;;
7899;SDS011;3995;50.856;4.404;2023-05-07T13:13:28;3.43;;;2.83;;
7899;SDS011;3995;50.856;4.404;2023-05-07T13:15:56;6.20;;;4.07;;
7899;SDS011;3995;50.856;4.404;2023-05-07T13:18:24;6.10;;;3.53;;
7899;SDS011;3995;50.856;4.404;2023-05-07T13:20:51;4.60;;;3.70;;
7899;SDS011;3995;50.856;4.404;2023-05-07T13:23:18;7.43;;;3.73;;
7899;SDS011;3995;50.856;4.404;2023-05-07T13:25:46;4.43;;;3.90;;
7899;SDS011;3995;50.856;4.404;2023-05-07T13:28:15;4.50;;;4.03;;
7899;SDS011;3995;50.856;4.404;2023-05-07T13:30:43;6.00;;;4.13;;
7899;SDS011;3995;50.856;4.404;2023-05-07T13:33:10;5.90;;;5.30;;
7899;SDS011;3995;50.856;4.404;2023-05-07T13:35:37;5.60;;;4.87;;
7899;SDS011;3995;50.856;4.404;2023-05-07T13:38:04;4.90;;;4.40;;
7899;SDS011;3995;50.856;4.404;2023-05-07T13:40:32;5.80;;;5.03;;
7899;SDS011;3995;50.856;4.404;2023-05-07T13:42:59;5.70;;;4.37;;
7899;SDS011;3995;50.856;4.404;2023-05-07T13:45:28;6.77;;;5.47;;
7899;SDS011;3995;50.856;4.404;2023-05-07T13:47:56;7.77;;;5.10;;
7899;SDS011;3995;50.856;4.404;2023-05-07T13:50:23;6.40;;;5.43;;
7899;SDS011;3995;50.856;4.404;2023-05-07T13:52:51;7.87;;;6.13;;
7899;SDS011;3995;50.856;4.404;2023-05-07T13:55:19;6.43;;;5.93;;
7899;SDS011;3995;50.856;4.404;2023-05-07T13:57:48;7.43;;;5.57;;
7899;SDS011;3995;50.856;4.404;2023-05-07T14:00:21;7.57;;;6.33;;
7899;SDS011;3995;50.856;4.404;2023-05-07T14:02:49;7.90;;;6.00;;
7899;SDS011;3995;50.856;4.404;2023-05-07T14:05:17;7.87;;;6.50;;
7899;SDS011;3995;50.856;4.404;2023-05-07T14:07:45;6.30;;;5.50;;
7899;SDS011;3995;50.856;4.404;2023-05-07T14:10:12;8.00;;;6.27;;
7899;SDS011;3995;50.856;4.404;2023-05-07T14:12:39;8.03;;;7.00;;
7899;SDS011;3995;50.856;4.404;2023-05-07T14:15:07;7.77;;;6.97;;
7899;SDS011;3995;50.856;4.404;2023-05-07T14:17:35;7.70;;;6.90;;
7899;SDS011;3995;50.856;4.404;2023-05-07T14:20:05;8.13;;;7.43;;
7899;SDS011;3995;50.856;4.404;2023-05-07T14:22:33;7.50;;;6.80;;
7899;SDS011;3995;50.856;4.404;2023-05-07T14:25:00;9.87;;;7.97;;
7899;SDS011;3995;50.856;4.404;2023-05-07T14:27:27;9.13;;;7.60;;
7899;SDS011;3995;50.856;4.404;2023-05-07T14:29:54;8.37;;;6.70;;
7899;SDS011;3995;50.856;4.404;2023-05-07T14:32:22;8.20;;;7.40;;
7899;SDS011;3995;50.856;4.404;2023-05-07T14:34:49;7.80;;;7.00;;
7899;SDS011;3995;50.856;4.404;2023-05-07T14:37:18;7.90;;;7.20;;
7899;SDS011;3995;50.856;4.404;2023-05-07T14:39:46;7.70;;;7.00;;
7899;SDS011;3995;50.856;4.404;2023-05-07T14:42:13;8.77;;;7.53;;
7899;SDS011;3995;50.856;4.404;2023-05-07T14:44:40;8.93;;;8.03;;
7899;SDS011;3995;50.856;4.404;2023-05-07T14:47:07;8.67;;;7.80;;
7899;SDS011;3995;50.856;4.404;2023-05-07T14:49:35;7.60;;;6.90;;
7899;SDS011;3995;50.856;4.404;2023-05-07T14:52:02;7.73;;;7.03;;
7899;SDS011;3995;50.856;4.404;2023-05-07T14:54:34;8.20;;;6.73;;
7899;SDS011;3995;50.856;4.404;2023-05-07T14:57:02;8.40;;;7.33;;
7899;SDS011;3995;50.856;4.404;2023-05-07T14:59:31;8.13;;;7.33;;
7899;SDS011;3995;50.856;4.404;2023-05-07T15:01:58;7.83;;;7.03;;
7899;SDS011;3995;50.856;4.404;2023-05-07T15:04:26;8.03;;;7.20;;
7899;SDS011;3995;50.856;4.404;2023-05-07T15:06:53;7.03;;;6.33;;
7899;SDS011;3995;50.856;4.404;2023-05-07T15:09:21;8.37;;;6.93;;
7899;SDS011;3995;50.856;4.404;2023-05-07T15:11:50;8.37;;;7.57;;
7899;SDS011;3995;50.856;4.404;2023-05-07T15:14:17;13.50;;;7.40;;
7899;SDS011;3995;50.856;4.404;2023-05-07T15:16:46;7.10;;;6.40;;
7899;SDS011;3995;50.856;4.404;2023-05-07T15:19:14;7.13;;;6.40;;
7899;SDS011;3995;50.856;4.404;2023-05-07T15:21:42;7.90;;;6.60;;
7899;SDS011;3995;50.856;4.404;2023-05-07T15:24:09;7.57;;;6.50;;
7899;SDS011;3995;50.856;4.404;2023-05-07T15:26:36;6.63;;;5.97;;
7899;SDS011;3995;50.856;4.404;2023-05-07T15:29:05;6.63;;;5.93;;
7899;SDS011;3995;50.856;4.404;2023-05-07T15:31:35;7.10;;;5.43;;
7899;SDS011;3995;50.856;4.404;2023-05-07T15:34:03;8.10;;;6.00;;
7899;SDS011;3995;50.856;4.404;2023-05-07T15:36:30;7.37;;;6.10;;
7899;SDS011;3995;50.856;4.404;2023-05-07T15:38:57;6.80;;;5.67;;